Flight Track Log - Related Links

Times and Time Zones

All times are in EST time to prevent confusion due to time zone crossing. See the CSN6814 flight status page for this flight to view local times or setup timezone preferences in your user account.

Time Position Orientation Groundspeed Altitude Reporting Facility
EST Latitude Longitude Course Direction KTS MPH feet Rate Location/Type
Wed 10:42:00 PM 37.1478 79.9709 38° Northeast  Level Estimated
Wed 10:43:00 PM 37.2569 80.0772 38° Northeast  Level Estimated
Wed 10:44:00 PM 37.3659 80.1838 38° Northeast  Level Estimated
Wed 10:45:00 PM 37.4749 80.2907 38° Northeast  Level Estimated
Wed 10:46:00 PM 37.5837 80.3979 38° Northeast  Level Estimated
Wed 10:47:00 PM 37.6925 80.5055 38° Northeast  Level Estimated
Wed 10:48:00 PM 37.8012 80.6133 38° Northeast  Level Estimated
Wed 10:49:00 PM 37.9097 80.7215 38° Northeast  Level Estimated
Wed 10:50:00 PM 38.0182 80.8300 38° Northeast  Level Estimated
Wed 10:51:00 PM 38.1265 80.9388 38° Northeast  Level Estimated
Wed 10:52:00 PM 38.2348 81.0479 38° Northeast  Level Estimated
Wed 10:53:00 PM 38.3429 81.1574 38° Northeast  Level Estimated
Wed 10:54:00 PM 38.4510 81.2672 38° Northeast  Level Estimated
Wed 10:55:00 PM 38.5589 81.3773 39° Northeast  Level Estimated
Wed 10:56:00 PM 38.6668 81.4877 39° Northeast  Level Estimated
Wed 10:57:00 PM 38.7745 81.5985 39° Northeast  Level Estimated
Wed 10:58:00 PM 38.8822 81.7096 39° Northeast  Level Estimated
Wed 10:59:00 PM 38.9897 81.8211 39° Northeast  Level Estimated
Wed 11:00:00 PM 39.0971 81.9328 39° Northeast  Level Estimated
Wed 11:01:00 PM 39.2045 82.0450 39° Northeast  Level Estimated
Wed 11:02:00 PM 39.3117 82.1574 39° Northeast  Level Estimated
Wed 11:03:00 PM 39.4188 82.2703 39° Northeast  Level Estimated
Wed 11:04:00 PM 39.5258 82.3834 39° Northeast  Level Estimated
Wed 11:05:00 PM 39.6326 82.4969 39° Northeast  Level Estimated
Wed 11:06:00 PM 39.7394 82.6108 39° Northeast  Level Estimated
Wed 11:07:00 PM 39.8461 82.7250 39° Northeast  Level Estimated
Wed 11:08:00 PM 39.9526 82.8396 39° Northeast  Level Estimated
Wed 11:09:00 PM 40.0591 82.9545 40° Northeast  Level Estimated
Wed 11:10:00 PM 40.1654 83.0698 40° Northeast  Level Estimated
Wed 11:11:00 PM 40.2716 83.1854 40° Northeast  Level Estimated
Wed 11:12:00 PM 40.3777 83.3015 40° Northeast  Level Estimated
Wed 11:13:00 PM 40.4837 83.4178 40° Northeast  Level Estimated
Wed 11:14:00 PM 40.5895 83.5346 40° Northeast  Level Estimated
Wed 11:15:00 PM 40.6953 83.6517 40° Northeast  Level Estimated
Wed 11:16:00 PM 40.8009 83.7692 40° Northeast  Level Estimated
Wed 11:17:00 PM 40.9064 83.8871 40° Northeast  Level Estimated
Wed 11:18:00 PM 41.0118 84.0053 40° Northeast  Level Estimated
Wed 11:19:00 PM 41.1170 84.1239 40° Northeast  Level Estimated
Wed 11:20:00 PM 41.2222 84.2429 40° Northeast  Level Estimated
Wed 11:21:00 PM 41.3272 84.3623 40° Northeast  Level Estimated
Wed 11:22:00 PM 41.4321 84.4821 41° Northeast  Level Estimated
Wed 11:23:00 PM 41.5368 84.6022 41° Northeast  Level Estimated
Wed 11:24:00 PM 41.6415 84.7228 41° Northeast  Level Estimated
Wed 11:25:00 PM 41.7460 84.8437 41° Northeast  Level Estimated
Wed 11:26:00 PM 41.8504 84.9651 41° Northeast  Level Estimated
Wed 11:27:00 PM 41.9547 85.0868 41° Northeast  Level Estimated
Wed 11:28:00 PM 42.0588 85.2089 41° Northeast  Level Estimated
Wed 11:29:00 PM 42.1628 85.3315 41° Northeast  Level Estimated
Wed 11:30:00 PM 42.2667 85.4544 41° Northeast  Level Estimated
Wed 11:31:00 PM 42.3704 85.5777 41° Northeast  Level Estimated
Wed 11:32:00 PM 42.4740 85.7015 41° Northeast  Level Estimated
Wed 11:33:00 PM 42.5775 85.8256 41° Northeast  Level Estimated
Wed 11:34:00 PM 42.6808 85.9502 42° Northeast  Level Estimated
Wed 11:35:00 PM 42.7840 86.0752 42° Northeast  Level Estimated
Wed 11:36:00 PM 42.8871 86.2006 42° Northeast  Level Estimated
Wed 11:37:00 PM 42.9900 86.3264 42° Northeast  Level Estimated
Wed 11:38:00 PM 43.0928 86.4526 42° Northeast  Level Estimated
Wed 11:39:00 PM 43.1955 86.5793 42° Northeast  Level Estimated
Wed 11:40:00 PM 43.2980 86.7064 42° Northeast  Level Estimated
Wed 11:41:00 PM 43.4003 86.8339 42° Northeast  Level Estimated
Wed 11:42:00 PM 43.5026 86.9619 42° Northeast  Level Estimated
Wed 11:43:00 PM 43.6047 87.0902 42° Northeast  Level Estimated
Wed 11:44:00 PM 43.7066 87.2190 42° Northeast  Level Estimated
Wed 11:45:00 PM 43.8084 87.3483 42° Northeast  Level Estimated
Wed 11:46:00 PM 43.9071 87.4742 43° Northeast  Level Estimated
Wed 11:47:00 PM 43.9071 87.4742 144° Southeast  Level Estimated
Wed 11:48:00 PM 43.9071 87.4742 144° Southeast  Level Estimated
Wed 11:49:00 PM 43.9071 87.4742 144° Southeast  Level Estimated
Wed 11:50:00 PM 43.9071 87.4742 144° Southeast  Level Estimated
Wed 11:51:00 PM 43.9071 87.4742 144° Southeast  Level Estimated
Wed 11:52:00 PM 43.9071 87.4742 144° Southeast  Level Estimated
Wed 11:53:00 PM 43.9071 87.4742 144° Southeast  Level Estimated
Wed 11:54:00 PM 43.9071 87.4742 144° Southeast  Level Estimated
Wed 11:55:00 PM 43.9071 87.4742 144° Southeast  Level Estimated
Wed 11:56:00 PM 43.9071 87.4742 144° Southeast  Level Estimated
Wed 11:57:00 PM 43.9071 87.4742 144° Southeast  Level Estimated
Wed 11:58:00 PM 43.9071 87.4742 144° Southeast  Level Estimated
Wed 11:59:00 PM 43.9071 87.4742 144° Southeast  Level Estimated
Thu 12:00:00 AM 43.9071 87.4742 144° Southeast  Level Estimated
Thu 12:01:00 AM 43.9071 87.4742 144° Southeast  Level Estimated
Thu 12:02:00 AM 43.9071 87.4742 144° Southeast  Level Estimated

Login

Don't have an account? Register now (free) for customized features, flight alerts, and more!